Time;durP1;ratioP1;P1;durP2;ratioP2;P2;SDS_P1;SDS_P2;PMS_P1;PMS_P2;Temp;Humidity;BMP_temperature;BMP_pressure;BME280_temperature;BME280_humidity;BME280_pressure;Samples;Min_cycle;Max_cycle;Signal;HPM_P1;HPM_P2
2022/05/20 00:00:27;;;;;;;6.00;5.50;;;19.90;99.90;;;;;;4983363;28;20547;-85
2022/05/20 00:02:54;;;;;;;7.27;6.60;;;19.80;99.90;;;;;;4983185;28;20460;-85
2022/05/20 00:05:21;;;;;;;6.27;5.70;;;19.80;99.90;;;;;;4982976;28;20453;-85
2022/05/20 00:07:48;;;;;;;7.57;6.30;;;19.80;99.90;;;;;;4983223;28;20538;-85
2022/05/20 00:10:17;;;;;;;5.80;5.30;;;19.80;99.90;;;;;;4983428;28;20524;-85
2022/05/20 00:12:44;;;;;;;7.73;7.03;;;19.70;99.90;;;;;;4983968;28;20455;-84
2022/05/20 00:15:14;;;;;;;6.63;5.40;;;19.80;99.90;;;;;;4984187;28;20555;-86
2022/05/20 00:17:41;;;;;;;6.13;5.63;;;19.70;99.90;;;;;;4983271;28;20577;-84
2022/05/20 00:20:10;;;;;;;6.90;6.20;;;19.80;99.90;;;;;;4983082;28;20499;-84
2022/05/20 00:22:37;;;;;;;6.00;5.50;;;19.70;99.90;;;;;;4983361;28;20459;-85
2022/05/20 00:27:50;;;;;;;6.33;5.87;;;19.60;99.90;;;;;;4982428;28;20491;-86
2022/05/20 00:30:18;;;;;;;6.43;5.83;;;19.60;99.90;;;;;;4982989;28;20857;-85
2022/05/20 00:32:44;;;;;;;6.87;6.17;;;19.60;99.90;;;;;;4982287;28;21831;-85
2022/05/20 00:35:13;;;;;;;6.50;5.90;;;19.60;99.90;;;;;;4983091;28;20471;-85
2022/05/20 00:37:40;;;;;;;6.00;5.40;;;19.50;99.90;;;;;;4982232;28;20488;-83
2022/05/20 00:40:10;;;;;;;6.70;6.10;;;19.40;99.90;;;;;;4981582;28;20451;-85
2022/05/20 00:42:37;;;;;;;7.47;6.77;;;19.40;99.90;;;;;;4964355;28;20469;-83
2022/05/20 00:45:07;;;;;;;6.50;6.00;;;19.40;99.90;;;;;;4965552;28;20463;-84
2022/05/20 00:47:34;;;;;;;7.63;6.83;;;19.40;99.90;;;;;;4984358;28;20555;-84
2022/05/20 00:50:05;;;;;;;6.63;6.13;;;19.40;99.90;;;;;;4982186;28;20455;-84
2022/05/20 00:52:34;;;;;;;6.33;5.93;;;19.40;99.90;;;;;;4984384;28;20436;-86
2022/05/20 00:55:05;;;;;;;7.30;5.77;;;19.40;99.90;;;;;;4983393;28;20524;-85
2022/05/20 00:57:34;;;;;;;8.00;6.90;;;19.40;99.90;;;;;;4983155;28;20495;-84
2022/05/20 01:00:08;;;;;;;6.73;6.00;;;19.40;99.90;;;;;;4983882;28;20827;-84
2022/05/20 01:02:35;;;;;;;9.63;7.30;;;19.30;99.90;;;;;;4983572;28;20492;-84
2022/05/20 01:05:04;;;;;;;6.63;6.03;;;19.30;99.90;;;;;;4982936;28;20459;-85
2022/05/20 01:07:36;;;;;;;7.40;6.70;;;19.30;99.90;;;;;;4981901;28;20494;-84
2022/05/20 01:10:02;;;;;;;7.07;6.50;;;19.30;99.90;;;;;;4981442;28;20451;-83
2022/05/20 01:12:30;;;;;;;7.00;6.40;;;19.30;99.90;;;;;;4981624;28;20554;-84
2022/05/20 01:14:56;;;;;;;15.13;7.17;;;19.30;99.90;;;;;;4982004;28;20535;-83
2022/05/20 01:17:25;;;;;;;7.50;6.83;;;19.10;99.90;;;;;;4980900;28;20496;-84
2022/05/20 01:19:54;;;;;;;7.33;6.63;;;19.10;99.90;;;;;;4981716;28;20487;-86
2022/05/20 01:22:28;;;;;;;7.03;6.43;;;19.10;99.90;;;;;;4981433;28;20459;-84
2022/05/20 01:24:56;;;;;;;7.77;7.07;;;19.10;99.90;;;;;;4980871;28;20514;-84
2022/05/20 01:27:23;;;;;;;7.73;7.13;;;19.10;99.90;;;;;;4993843;28;20466;-84
2022/05/20 01:29:50;;;;;;;8.60;6.93;;;19.00;99.90;;;;;;5000619;28;20486;-84
2022/05/20 01:32:17;;;;;;;7.60;6.80;;;19.00;99.90;;;;;;4999965;28;21092;-84
2022/05/20 01:34:44;;;;;;;7.00;6.40;;;19.00;99.90;;;;;;4982675;28;20462;-85
2022/05/20 01:37:11;;;;;;;7.60;6.90;;;19.00;99.90;;;;;;4980323;28;20555;-84
2022/05/20 01:39:38;;;;;;;6.77;6.17;;;19.00;99.90;;;;;;4979784;28;20451;-84
2022/05/20 01:42:13;;;;;;;7.60;6.90;;;19.00;99.90;;;;;;4979894;28;20711;-84
2022/05/20 01:44:46;;;;;;;8.43;6.70;;;18.90;99.90;;;;;;4979585;28;20533;-85
2022/05/20 01:47:21;;;;;;;8.13;7.40;;;18.90;99.90;;;;;;4980257;28;21063;-84
2022/05/20 01:49:53;;;;;;;7.33;6.73;;;18.80;99.90;;;;;;4979942;28;20999;-85
2022/05/20 01:52:26;;;;;;;7.20;6.60;;;18.80;99.90;;;;;;4980052;28;20551;-84
2022/05/20 01:55:03;;;;;;;7.17;6.57;;;18.80;99.90;;;;;;4980307;28;20515;-85
2022/05/20 01:57:37;;;;;;;6.73;6.23;;;18.80;99.90;;;;;;4979846;28;20571;-84
2022/05/20 02:00:09;;;;;;;8.53;7.53;;;18.80;99.90;;;;;;4979976;28;20893;-85
2022/05/20 02:02:40;;;;;;;7.67;7.00;;;18.80;99.90;;;;;;4979308;28;20460;-85
2022/05/20 02:05:14;;;;;;;8.10;7.47;;;18.80;99.90;;;;;;4979566;28;20467;-84
2022/05/20 02:07:45;;;;;;;7.53;6.93;;;18.80;99.90;;;;;;4980103;28;20499;-84
2022/05/20 02:10:19;;;;;;;8.77;8.07;;;18.80;99.90;;;;;;4979646;28;20484;-84
2022/05/20 02:12:52;;;;;;;7.53;7.00;;;18.80;99.90;;;;;;4979443;28;20455;-84
2022/05/20 02:15:23;;;;;;;7.93;7.10;;;18.90;99.90;;;;;;4979824;28;20454;-83
2022/05/20 02:17:54;;;;;;;7.53;6.93;;;18.90;99.90;;;;;;4979368;28;20491;-84
2022/05/20 02:20:26;;;;;;;6.93;6.33;;;18.80;99.90;;;;;;4979726;28;20455;-83
2022/05/20 02:22:55;;;;;;;6.83;6.23;;;18.90;99.90;;;;;;4979328;28;20448;-84
2022/05/20 02:25:28;;;;;;;9.33;7.80;;;18.80;99.90;;;;;;4979541;28;20459;-84
2022/05/20 02:28:01;;;;;;;7.27;6.70;;;18.80;99.90;;;;;;4979269;28;20478;-84
2022/05/20 02:30:31;;;;;;;7.67;7.07;;;18.80;99.90;;;;;;4979991;28;20455;-84
2022/05/20 02:33:03;;;;;;;7.10;6.40;;;18.80;99.90;;;;;;4979496;28;20692;-84
2022/05/20 02:35:30;;;;;;;7.20;6.50;;;18.80;99.90;;;;;;4979829;28;20459;-85
2022/05/20 02:38:05;;;;;;;7.27;6.60;;;18.80;99.90;;;;;;4978900;28;20578;-84
2022/05/20 02:40:32;;;;;;;6.83;6.33;;;18.80;99.90;;;;;;4979112;28;20847;-84
2022/05/20 02:43:00;;;;;;;7.60;6.90;;;18.70;99.90;;;;;;4979193;28;20455;-85
2022/05/20 02:45:27;;;;;;;8.27;6.83;;;18.80;99.90;;;;;;4978529;28;20455;-84
2022/05/20 02:47:54;;;;;;;8.27;7.43;;;18.80;99.90;;;;;;4979597;28;20470;-84
2022/05/20 02:50:20;;;;;;;7.27;6.67;;;18.70;99.90;;;;;;4978222;28;20459;-84
2022/05/20 02:52:47;;;;;;;6.87;6.37;;;18.80;99.90;;;;;;4979243;28;20454;-84
2022/05/20 02:55:14;;;;;;;8.40;7.60;;;18.80;99.90;;;;;;4978792;28;20455;-84
2022/05/20 02:57:42;;;;;;;11.30;8.13;;;18.80;99.90;;;;;;4979434;28;20507;-84
2022/05/20 03:05:41;;;;;;;8.17;7.40;;;18.90;99.90;;;;;;4959308;29;20805;-84
2022/05/20 03:08:08;;;;;;;7.83;7.03;;;18.90;99.90;;;;;;4975549;28;20468;-84
2022/05/20 03:10:35;;;;;;;12.10;8.27;;;18.90;99.90;;;;;;4979298;28;20459;-84
2022/05/20 03:13:17;;;;;;;7.23;6.73;;;18.90;99.90;;;;;;4979026;28;20463;-85
2022/05/20 03:15:45;;;;;;;7.60;6.90;;;18.90;99.90;;;;;;4979081;28;20817;-83
2022/05/20 03:18:13;;;;;;;7.40;6.70;;;18.90;99.90;;;;;;4977684;28;20498;-84
2022/05/20 03:20:41;;;;;;;7.87;7.27;;;18.90;99.90;;;;;;4977194;28;20447;-85
2022/05/20 03:23:09;;;;;;;8.80;8.10;;;18.90;99.90;;;;;;4977476;28;20459;-84
2022/05/20 03:25:36;;;;;;;9.10;8.33;;;18.90;99.90;;;;;;4977994;28;20957;-84
2022/05/20 03:28:03;;;;;;;8.23;7.60;;;18.90;99.90;;;;;;4977581;28;20839;-84
2022/05/20 03:30:30;;;;;;;9.10;8.27;;;19.00;99.90;;;;;;4977837;28;20532;-85
2022/05/20 03:32:58;;;;;;;8.13;7.37;;;19.00;99.90;;;;;;4977760;28;20456;-84
2022/05/20 03:35:25;;;;;;;9.10;8.20;;;19.00;99.90;;;;;;4978270;28;20466;-84
2022/05/20 03:37:52;;;;;;;8.93;8.07;;;19.00;99.90;;;;;;4977762;28;20487;-84
2022/05/20 03:40:18;;;;;;;8.63;7.83;;;19.00;99.90;;;;;;4978504;28;20463;-84
2022/05/20 03:42:45;;;;;;;7.90;7.20;;;19.10;99.90;;;;;;4978626;28;20466;-84
2022/05/20 03:45:12;;;;;;;10.60;9.50;;;19.00;99.90;;;;;;4978355;28;20451;-85
2022/05/20 03:47:39;;;;;;;7.43;6.83;;;19.10;99.90;;;;;;4979394;28;20485;-84
2022/05/20 03:50:08;;;;;;;7.73;7.00;;;19.10;99.90;;;;;;4979112;28;20464;-85
2022/05/20 03:52:35;;;;;;;7.73;7.03;;;19.10;99.90;;;;;;4979287;28;20450;-85
2022/05/20 03:55:02;;;;;;;7.57;6.80;;;19.20;99.90;;;;;;4978865;28;20486;-85
2022/05/20 03:57:29;;;;;;;7.33;6.80;;;19.20;99.90;;;;;;4978820;28;20556;-84
2022/05/20 03:59:56;;;;;;;8.00;7.40;;;19.20;99.90;;;;;;4980059;28;20458;-85
2022/05/20 04:02:22;;;;;;;7.97;7.37;;;19.30;99.90;;;;;;4978502;28;20472;-84
2022/05/20 04:04:52;;;;;;;8.33;7.60;;;19.30;99.90;;;;;;4979110;28;20459;-84
2022/05/20 04:07:22;;;;;;;8.90;8.03;;;19.30;99.90;;;;;;4978202;28;20983;-84
2022/05/20 04:09:49;;;;;;;8.60;7.90;;;19.20;99.90;;;;;;4978695;28;20439;-84
2022/05/20 04:12:24;;;;;;;7.80;7.17;;;19.30;99.90;;;;;;4979301;28;20460;-84
2022/05/20 04:14:51;;;;;;;8.30;7.50;;;19.30;99.90;;;;;;4978552;28;20546;-83
2022/05/20 04:17:18;;;;;;;8.77;8.03;;;19.30;99.90;;;;;;4978672;28;20491;-85
2022/05/20 04:19:44;;;;;;;9.20;8.03;;;19.30;99.90;;;;;;4979168;28;20849;-84
2022/05/20 04:22:13;;;;;;;7.97;7.17;;;19.30;99.90;;;;;;4978751;28;20442;-83
2022/05/20 04:24:41;;;;;;;8.10;7.50;;;19.30;99.90;;;;;;4981463;28;20464;-84
2022/05/20 04:27:08;;;;;;;8.87;8.07;;;19.20;99.90;;;;;;4982053;28;20829;-85
2022/05/20 04:29:35;;;;;;;9.67;7.27;;;19.20;99.90;;;;;;4981963;28;20463;-85
2022/05/20 04:32:02;;;;;;;7.70;7.20;;;19.20;99.90;;;;;;4980996;28;20819;-84
2022/05/20 04:34:29;;;;;;;8.50;7.70;;;19.20;99.90;;;;;;4980789;28;20462;-85
2022/05/20 04:36:56;;;;;;;8.27;7.47;;;19.20;99.90;;;;;;4981269;28;20483;-85
2022/05/20 04:39:23;;;;;;;8.50;7.70;;;19.30;99.90;;;;;;4981429;28;20829;-84
2022/05/20 04:47:26;;;;;;;8.73;7.73;;;19.30;99.90;;;;;;4965159;28;20451;-83
2022/05/20 04:49:53;;;;;;;7.47;6.80;;;19.40;99.90;;;;;;4967951;28;20456;-84
2022/05/20 04:52:22;;;;;;;8.80;8.07;;;19.40;99.90;;;;;;4986650;28;20463;-84
2022/05/20 04:54:51;;;;;;;7.13;6.53;;;19.40;99.90;;;;;;4986335;28;20464;-84
2022/05/20 04:57:26;;;;;;;7.73;7.13;;;19.40;99.90;;;;;;4986017;28;20498;-85
2022/05/20 04:59:53;;;;;;;8.20;7.57;;;19.40;99.90;;;;;;4985596;28;20464;-85
2022/05/20 05:02:22;;;;;;;11.13;8.17;;;19.50;99.90;;;;;;4967481;28;20512;-84
2022/05/20 05:04:49;;;;;;;8.60;7.60;;;19.50;99.90;;;;;;4966368;28;20867;-84
2022/05/20 05:07:16;;;;;;;8.10;7.30;;;19.50;99.90;;;;;;4984888;28;20483;-83
2022/05/20 05:09:45;;;;;;;8.73;7.43;;;19.60;99.90;;;;;;4985875;28;20467;-85
2022/05/20 05:12:14;;;;;;;8.30;7.50;;;19.60;99.90;;;;;;4984975;28;20546;-84
2022/05/20 05:14:44;;;;;;;7.63;6.93;;;19.60;99.90;;;;;;4985462;28;20499;-85
2022/05/20 05:17:13;;;;;;;6.57;6.07;;;19.70;99.90;;;;;;4985976;28;20523;-84
2022/05/20 05:19:44;;;;;;;7.40;6.67;;;19.80;99.90;;;;;;4985854;28;20487;-85
2022/05/20 05:22:12;;;;;;;7.30;6.70;;;19.90;99.90;;;;;;4984861;28;20532;-85
2022/05/20 05:24:39;;;;;;;6.40;5.83;;;19.90;99.90;;;;;;4985157;28;20454;-84
2022/05/20 05:27:06;;;;;;;6.60;6.00;;;19.90;99.90;;;;;;4985602;28;21127;-85
2022/05/20 05:29:36;;;;;;;7.17;6.43;;;19.90;99.90;;;;;;4985084;28;20459;-84
2022/05/20 05:32:05;;;;;;;6.53;5.93;;;19.90;99.90;;;;;;4984098;28;20931;-84
2022/05/20 05:34:33;;;;;;;5.87;5.47;;;20.00;99.90;;;;;;4983403;28;20458;-84
2022/05/20 05:37:00;;;;;;;7.90;6.10;;;20.00;99.90;;;;;;4973305;28;20859;-85
2022/05/20 05:39:26;;;;;;;7.63;7.00;;;20.00;99.90;;;;;;4985901;28;20441;-84
2022/05/20 05:41:53;;;;;;;6.50;5.90;;;20.10;99.90;;;;;;4985650;28;20460;-85
2022/05/20 05:44:20;;;;;;;6.90;6.40;;;20.20;99.90;;;;;;4986702;28;20448;-85
2022/05/20 05:46:47;;;;;;;6.53;6.13;;;20.10;99.90;;;;;;4985703;28;20462;-84
2022/05/20 05:49:16;;;;;;;5.83;5.40;;;20.30;99.90;;;;;;4986287;28;20524;-86
2022/05/20 05:51:43;;;;;;;5.80;5.40;;;20.40;99.90;;;;;;4986176;28;20457;-84
2022/05/20 05:54:12;;;;;;;6.00;5.60;;;20.50;99.90;;;;;;4987579;28;20448;-86
2022/05/20 05:56:39;;;;;;;6.47;5.97;;;20.60;99.90;;;;;;4986543;28;20449;-85
2022/05/20 05:59:06;;;;;;;5.90;5.50;;;20.60;99.90;;;;;;4987737;28;20492;-86
2022/05/20 06:01:33;;;;;;;7.20;5.70;;;20.60;99.90;;;;;;4987811;28;20454;-86
2022/05/20 06:04:00;;;;;;;6.50;6.00;;;20.70;99.90;;;;;;4989149;28;20861;-86
2022/05/20 06:06:28;;;;;;;6.00;5.40;;;20.70;99.90;;;;;;4988302;28;20448;-86
2022/05/20 06:08:57;;;;;;;5.97;5.37;;;20.80;99.90;;;;;;4988166;28;20527;-85
2022/05/20 06:11:24;;;;;;;6.10;4.90;;;20.80;99.90;;;;;;4988913;28;20525;-85
2022/05/20 06:13:51;;;;;;;6.90;6.30;;;21.00;99.90;;;;;;4988214;28;20452;-85
2022/05/20 06:16:19;;;;;;;5.60;5.20;;;21.10;99.90;;;;;;4986692;28;20468;-84
2022/05/20 06:18:46;;;;;;;7.20;6.30;;;21.20;99.90;;;;;;4988168;28;20789;-84
2022/05/20 06:21:13;;;;;;;5.70;5.27;;;21.30;99.90;;;;;;4985146;28;20458;-84
2022/05/20 06:23:41;;;;;;;6.07;5.67;;;21.50;99.90;;;;;;4980389;28;20538;-85
2022/05/20 06:26:08;;;;;;;5.37;4.97;;;21.50;99.90;;;;;;4980369;28;20955;-85
2022/05/20 06:28:35;;;;;;;6.73;5.50;;;21.60;99.90;;;;;;4980554;28;20469;-85
2022/05/20 06:31:02;;;;;;;5.90;5.50;;;21.70;99.90;;;;;;4999912;28;20824;-84
2022/05/20 06:33:29;;;;;;;6.67;6.07;;;21.80;99.90;;;;;;4998997;28;20513;-84
2022/05/20 06:41:26;;;;;;;5.63;5.20;;;22.20;99.90;;;;;;4979196;28;20501;-84
2022/05/20 06:43:53;;;;;;;5.90;5.30;;;22.40;99.90;;;;;;4980335;28;20462;-83
2022/05/20 06:46:19;;;;;;;6.53;5.97;;;22.50;99.90;;;;;;4979588;28;20463;-84
2022/05/20 06:48:49;;;;;;;5.93;5.53;;;22.50;99.90;;;;;;4979643;28;21008;-84
2022/05/20 06:51:18;;;;;;;5.93;5.47;;;22.60;99.90;;;;;;5005279;23;21120;-82
2022/05/20 06:53:47;;;;;;;4.73;4.43;;;22.70;99.90;;;;;;4981115;28;20467;-81
2022/05/20 06:56:15;;;;;;;5.17;4.77;;;22.80;99.90;;;;;;4980433;28;20967;-82
2022/05/20 06:58:42;;;;;;;6.20;5.50;;;23.00;99.90;;;;;;4999867;28;20533;-82
2022/05/20 07:01:09;;;;;;;5.77;5.37;;;23.20;99.90;;;;;;4996013;28;20554;-82
2022/05/20 07:03:36;;;;;;;5.60;5.20;;;23.20;99.90;;;;;;4971062;28;20460;-82
2022/05/20 07:06:04;;;;;;;6.33;5.77;;;23.30;99.90;;;;;;4992322;28;20453;-82
2022/05/20 07:08:32;;;;;;;5.60;5.20;;;23.20;99.90;;;;;;4984454;28;20445;-82
2022/05/20 07:11:01;;;;;;;5.93;5.43;;;23.30;99.70;;;;;;4987000;28;20455;-82
2022/05/20 07:13:28;;;;;;;5.20;4.90;;;23.30;99.30;;;;;;4973453;28;20460;-83
2022/05/20 07:15:55;;;;;;;5.80;5.33;;;23.40;99.50;;;;;;4961001;28;20835;-84
2022/05/20 07:18:22;;;;;;;5.13;4.63;;;23.50;99.30;;;;;;4981404;28;20484;-83
2022/05/20 07:20:48;;;;;;;5.83;5.30;;;23.60;99.50;;;;;;4968550;28;20947;-81
2022/05/20 07:23:15;;;;;;;6.13;5.53;;;23.70;99.70;;;;;;4961741;28;20445;-82
2022/05/20 07:25:42;;;;;;;5.90;5.50;;;23.90;99.30;;;;;;4970349;28;20454;-83
2022/05/20 07:28:10;;;;;;;5.63;5.23;;;23.90;99.00;;;;;;4978534;28;20448;-83
2022/05/20 07:30:40;;;;;;;6.00;5.43;;;24.00;98.00;;;;;;4978410;28;21023;-81
2022/05/20 07:33:07;;;;;;;6.07;5.40;;;23.90;97.30;;;;;;4960303;28;20472;-81
2022/05/20 07:35:35;;;;;;;6.17;5.17;;;24.10;97.80;;;;;;4960899;28;20445;-81
2022/05/20 07:38:02;;;;;;;6.03;4.97;;;24.10;98.00;;;;;;4979950;28;20480;-84
2022/05/20 07:40:29;;;;;;;6.67;5.20;;;24.30;97.30;;;;;;4980181;28;20456;-81
2022/05/20 07:42:56;;;;;;;5.43;4.87;;;24.30;97.00;;;;;;4960940;28;20858;-82
2022/05/20 07:45:25;;;;;;;5.20;4.80;;;24.30;97.20;;;;;;4965351;28;20452;-83
2022/05/20 07:47:52;;;;;;;5.53;5.07;;;24.50;97.00;;;;;;4978032;28;20456;-83
2022/05/20 07:50:20;;;;;;;6.00;5.50;;;24.60;97.10;;;;;;4960274;28;20457;-83
2022/05/20 07:55:37;;;;;;;5.07;4.77;;;24.70;96.60;;;;;;4960215;28;20460;-83
2022/05/20 07:58:08;;;;;;;5.43;5.13;;;24.80;96.70;;;;;;4963514;28;20478;-82
2022/05/20 08:00:36;;;;;;;5.60;5.20;;;24.90;96.30;;;;;;4982500;28;20451;-82
2022/05/20 08:03:03;;;;;;;5.30;4.90;;;24.90;96.10;;;;;;4979327;28;20470;-83
2022/05/20 08:05:30;;;;;;;5.00;4.43;;;25.00;96.00;;;;;;4968838;28;20454;-83
2022/05/20 08:08:00;;;;;;;5.70;5.17;;;25.10;95.30;;;;;;4967922;28;20481;-82
2022/05/20 08:10:29;;;;;;;5.30;4.90;;;25.10;95.50;;;;;;4967761;28;20454;-82
2022/05/20 08:12:57;;;;;;;5.40;4.87;;;25.10;95.50;;;;;;4967917;28;20499;-82
2022/05/20 08:15:25;;;;;;;5.10;4.70;;;25.20;96.00;;;;;;4977089;28;20452;-86
2022/05/20 08:18:27;;;;;;;6.40;5.83;;;25.40;95.60;;;;;;4975986;28;20539;-86
2022/05/20 08:21:07;;;;;;;7.23;5.00;;;25.60;95.30;;;;;;4965981;28;20484;-85
2022/05/20 08:23:34;;;;;;;5.43;5.03;;;25.60;95.50;;;;;;4961900;28;20524;-86
2022/05/20 08:26:37;;;;;;;5.60;5.13;;;25.70;94.80;;;;;;4964251;28;20459;-86
2022/05/20 08:33:14;;;;;;;5.80;5.30;;;25.90;94.50;;;;;;4964578;28;20477;-86
2022/05/20 08:39:34;;;;;;;5.70;5.20;;;26.10;93.60;;;;;;4924162;28;20481;-85
2022/05/20 08:42:01;;;;;;;5.13;4.73;;;26.20;93.50;;;;;;4959097;28;20475;-86
2022/05/20 08:44:28;;;;;;;6.00;5.50;;;26.20;94.10;;;;;;4971275;28;20458;-84
2022/05/20 08:47:12;;;;;;;5.83;5.33;;;26.30;93.60;;;;;;4959039;28;20465;-87
2022/05/20 08:49:39;;;;;;;5.50;5.10;;;26.40;93.20;;;;;;4956856;28;20460;-86
2022/05/20 08:52:08;;;;;;;5.10;4.80;;;26.50;93.00;;;;;;4967427;28;20493;-86
2022/05/20 08:54:35;;;;;;;6.30;5.60;;;26.60;93.20;;;;;;4988835;28;20494;-88
2022/05/20 08:57:18;;;;;;;5.83;5.40;;;26.70;92.80;;;;;;4979773;28;20448;-87
2022/05/20 08:59:45;;;;;;;6.00;5.40;;;26.70;92.30;;;;;;4972405;28;20499;-85
2022/05/20 09:02:12;;;;;;;7.23;6.40;;;26.70;91.90;;;;;;4968144;28;20849;-86
2022/05/20 09:04:38;;;;;;;6.27;5.30;;;26.80;91.20;;;;;;4957000;28;20819;-86
2022/05/20 09:07:09;;;;;;;5.90;5.40;;;27.00;91.10;;;;;;4957626;28;20459;-86
2022/05/20 09:09:46;;;;;;;5.40;4.90;;;27.10;91.10;;;;;;4961128;28;20465;-86
2022/05/20 09:12:27;;;;;;;5.30;4.90;;;27.20;88.60;;;;;;4961240;28;20482;-87
2022/05/20 09:18:04;;;;;;;5.47;4.50;;;27.20;88.40;;;;;;4921745;28;20925;-86
2022/05/20 09:20:31;;;;;;;5.57;5.07;;;27.30;89.30;;;;;;4956503;28;20515;-86
2022/05/20 09:23:06;;;;;;;4.50;4.10;;;27.40;87.70;;;;;;4956259;28;20480;-86
2022/05/20 09:25:36;;;;;;;5.07;4.60;;;27.50;86.60;;;;;;4956402;28;20469;-87
2022/05/20 09:28:19;;;;;;;5.70;5.30;;;27.60;87.90;;;;;;4956316;28;20502;-86
2022/05/20 09:30:50;;;;;;;5.23;4.83;;;27.80;84.10;;;;;;4955966;28;20452;-86
2022/05/20 09:33:21;;;;;;;5.53;5.03;;;27.90;84.80;;;;;;4956412;28;20453;-86
2022/05/20 09:35:55;;;;;;;5.67;5.27;;;27.80;83.10;;;;;;4956017;28;20443;-86
2022/05/20 09:38:35;;;;;;;5.23;4.80;;;27.80;83.10;;;;;;4955901;28;20490;-87
2022/05/20 09:41:15;;;;;;;5.40;5.03;;;27.90;81.60;;;;;;4955618;28;20462;-86
2022/05/20 09:43:44;;;;;;;5.90;5.40;;;27.90;79.90;;;;;;4969589;28;20441;-86
2022/05/20 09:46:33;;;;;;;6.43;4.63;;;27.80;80.70;;;;;;4955752;28;20458;-87
2022/05/20 09:49:05;;;;;;;4.90;4.47;;;27.80;80.40;;;;;;4955521;28;20828;-87
2022/05/20 09:51:38;;;;;;;5.93;5.27;;;27.70;79.80;;;;;;4955281;28;20490;-87
2022/05/20 09:54:16;;;;;;;6.00;5.60;;;27.90;81.50;;;;;;4955744;28;20459;-86
2022/05/20 09:56:46;;;;;;;5.17;4.87;;;28.00;80.00;;;;;;4955588;28;20470;-87
2022/05/20 09:59:23;;;;;;;5.33;5.03;;;27.90;80.50;;;;;;4955505;28;20497;-87
2022/05/20 10:01:57;;;;;;;5.33;4.83;;;28.10;82.10;;;;;;4970065;28;20493;-88
2022/05/20 10:04:35;;;;;;;8.70;5.43;;;28.30;80.50;;;;;;4977381;28;20474;-87
2022/05/20 10:07:05;;;;;;;5.33;4.73;;;28.40;79.30;;;;;;4958617;28;20542;-87
2022/05/20 10:09:40;;;;;;;4.80;4.40;;;28.40;77.70;;;;;;4956966;28;20482;-87
2022/05/20 10:12:11;;;;;;;5.00;4.53;;;28.40;77.30;;;;;;4957266;28;20555;-86
2022/05/20 10:14:51;;;;;;;4.90;4.50;;;28.40;75.40;;;;;;4956285;28;20444;-85
2022/05/20 10:17:32;;;;;;;4.67;4.30;;;28.60;78.30;;;;;;4955428;28;20464;-85
2022/05/20 10:20:05;;;;;;;4.47;4.10;;;28.80;73.90;;;;;;4954963;28;20585;-85
2022/05/20 10:22:47;;;;;;;4.67;4.37;;;28.90;74.20;;;;;;4954697;28;20483;-86
2022/05/20 10:25:24;;;;;;;5.77;4.87;;;29.00;71.40;;;;;;4956017;28;20456;-85
2022/05/20 10:27:58;;;;;;;4.80;4.40;;;29.20;70.80;;;;;;4955157;28;20507;-85
2022/05/20 10:33:18;;;;;;;4.50;4.03;;;29.50;67.40;;;;;;4968229;28;20537;-81
2022/05/20 10:36:06;;;;;;;5.57;4.97;;;29.60;66.10;;;;;;4957941;28;20441;-82
2022/05/20 10:39:02;;;;;;;6.13;4.63;;;29.80;65.10;;;;;;4960123;28;20492;-83
2022/05/20 10:41:47;;;;;;;7.20;4.67;;;29.70;64.80;;;;;;4960959;28;20478;-84
2022/05/20 10:50:20;;;;;;;3.90;3.57;;;30.20;60.50;;;;;;4960610;29;20813;-84
2022/05/20 10:53:04;;;;;;;6.53;4.27;;;30.30;61.90;;;;;;4959150;28;20480;-84
2022/05/20 10:55:41;;;;;;;5.20;4.17;;;30.30;62.90;;;;;;4957796;28;20459;-84
2022/05/20 10:58:49;;;;;;;4.63;4.33;;;30.50;60.80;;;;;;4957305;28;20465;-85
2022/05/20 11:01:35;;;;;;;4.57;4.10;;;30.50;61.10;;;;;;4957258;28;20533;-84
2022/05/20 11:04:36;;;;;;;7.90;4.20;;;30.70;59.90;;;;;;4957395;28;20456;-85
2022/05/20 11:07:33;;;;;;;5.30;4.80;;;31.10;61.30;;;;;;4956266;28;20832;-84
2022/05/20 11:10:26;;;;;;;7.00;4.80;;;31.30;56.60;;;;;;4955609;28;20456;-85
2022/05/20 11:13:10;;;;;;;3.97;3.67;;;31.80;57.30;;;;;;4953244;29;20844;-85
2022/05/20 11:16:16;;;;;;;5.17;4.70;;;32.10;57.50;;;;;;4954512;28;20765;-85
2022/05/20 11:19:41;;;;;;;4.73;4.33;;;32.50;58.50;;;;;;4915364;29;20493;-85
2022/05/20 11:22:43;;;;;;;8.63;4.80;;;33.00;56.00;;;;;;4957562;29;20901;-84
2022/05/20 11:25:26;;;;;;;5.70;5.20;;;32.90;53.90;;;;;;4917783;28;20480;-85
2022/05/20 11:28:13;;;;;;;4.47;3.77;;;32.70;53.00;;;;;;4954847;28;20958;-86
2022/05/20 11:37:18;;;;;;;4.93;4.53;;;33.70;51.50;;;;;;4958332;28;20467;-86
2022/05/20 11:40:18;;;;;;;4.97;4.57;;;34.20;51.30;;;;;;4957828;28;20861;-86
2022/05/20 11:43:14;;;;;;;4.40;3.97;;;34.70;51.40;;;;;;4957790;29;20527;-85
2022/05/20 11:53:18;;;;;;;5.20;4.70;;;35.00;47.20;;;;;;4965580;28;20468;-86
2022/05/20 11:59:21;;;;;;;4.73;4.33;;;35.50;48.60;;;;;;4943863;28;21031;-86
2022/05/20 12:15:41;;;;;;;4.53;4.10;;;35.40;46.80;;;;;;4967436;28;20984;-88
2022/05/20 12:24:32;;;;;;;5.00;4.50;;;36.10;45.00;;;;;;4958190;28;20455;-90
2022/05/20 12:27:00;;;;;;;4.50;4.10;;;36.50;45.10;;;;;;4972000;28;20944;-90
2022/05/20 12:30:07;;;;;;;6.00;4.30;;;36.90;43.70;;;;;;4984974;28;20475;-88
2022/05/20 12:32:53;;;;;;;6.20;4.17;;;36.90;41.60;;;;;;4984600;28;20475;-90
2022/05/20 12:35:27;;;;;;;5.10;4.53;;;36.70;41.50;;;;;;4977731;28;20559;-89
2022/05/20 12:38:25;;;;;;;5.90;4.33;;;36.90;41.50;;;;;;4979553;28;20535;-89
2022/05/20 12:41:34;;;;;;;5.03;4.63;;;37.30;41.30;;;;;;4986954;28;21094;-89
2022/05/20 12:44:31;;;;;;;5.17;3.53;;;37.40;39.60;;;;;;4979656;28;20455;-89
2022/05/20 12:47:08;;;;;;;5.20;4.50;;;37.30;39.20;;;;;;4977146;28;20463;-89
2022/05/20 12:49:39;;;;;;;8.00;4.43;;;37.20;39.10;;;;;;4982896;28;20954;-90
2022/05/20 12:52:21;;;;;;;4.23;3.80;;;37.30;39.40;;;;;;4981514;28;20503;-88
2022/05/20 12:54:50;;;;;;;4.93;4.40;;;37.60;38.70;;;;;;4982813;28;20459;-88
2022/05/20 12:57:20;;;;;;;8.23;4.90;;;37.60;37.90;;;;;;4991008;28;20436;-88
2022/05/20 13:00:40;;;;;;;5.10;3.80;;;37.70;38.10;;;;;;4986960;28;20475;-89
2022/05/20 13:03:11;;;;;;;3.70;3.40;;;37.60;37.90;;;;;;4981201;28;21001;-87
2022/05/20 13:09:30;;;;;;;4.23;3.93;;;37.80;37.70;;;;;;4947210;28;20455;-91
2022/05/20 13:12:19;;;;;;;7.23;5.33;;;38.20;36.30;;;;;;4981996;28;20990;-90
2022/05/20 13:14:54;;;;;;;4.27;3.83;;;38.20;36.50;;;;;;4980105;28;20455;-86
2022/05/20 13:17:22;;;;;;;8.50;4.97;;;38.00;35.80;;;;;;4983627;28;20514;-89
2022/05/20 13:19:51;;;;;;;4.43;4.03;;;37.70;36.60;;;;;;5004126;28;20551;-87
2022/05/20 13:22:22;;;;;;;5.37;4.87;;;37.80;38.00;;;;;;5006062;28;20471;-86
2022/05/20 13:24:58;;;;;;;6.03;3.80;;;38.40;36.60;;;;;;4992144;28;20454;-90
2022/05/20 13:27:29;;;;;;;4.40;4.00;;;38.50;35.60;;;;;;4981933;28;20478;-86
2022/05/20 13:30:13;;;;;;;4.13;3.43;;;38.60;35.70;;;;;;4990580;28;20440;-88
2022/05/20 13:32:41;;;;;;;3.80;3.30;;;38.20;35.00;;;;;;4971667;28;20475;-89
2022/05/20 13:35:09;;;;;;;4.00;3.70;;;38.00;35.10;;;;;;4965013;28;20540;-86
2022/05/20 13:37:40;;;;;;;4.13;3.80;;;38.20;37.30;;;;;;4978585;28;20822;-88
2022/05/20 13:40:13;;;;;;;4.13;3.80;;;38.40;34.80;;;;;;4972711;28;20487;-86
2022/05/20 13:42:50;;;;;;;4.50;4.10;;;38.70;35.00;;;;;;4979993;28;20479;-88
2022/05/20 13:45:20;;;;;;;4.87;3.77;;;38.60;34.80;;;;;;4981850;28;20428;-85
2022/05/20 13:50:35;;;;;;;3.93;3.50;;;38.90;34.90;;;;;;4975086;28;20809;-85
2022/05/20 13:53:04;;;;;;;5.00;4.60;;;39.30;35.00;;;;;;4988300;28;20471;-86
2022/05/20 13:55:34;;;;;;;5.80;4.37;;;39.80;34.30;;;;;;4963389;28;20978;-85
2022/05/20 13:58:02;;;;;;;7.67;4.10;;;40.10;33.00;;;;;;4983459;28;20445;-86
2022/05/20 14:00:33;;;;;;;4.47;4.00;;;40.30;33.30;;;;;;4969929;28;20489;-86
2022/05/20 14:03:04;;;;;;;5.87;5.37;;;40.40;32.20;;;;;;4972139;28;20476;-86
2022/05/20 14:05:39;;;;;;;4.77;4.27;;;41.00;33.50;;;;;;4980812;28;20463;-87
2022/05/20 14:08:06;;;;;;;7.30;4.93;;;41.60;32.90;;;;;;4983082;28;20459;-87
2022/05/20 14:10:36;;;;;;;3.73;3.40;;;41.30;31.40;;;;;;4979940;28;20495;-87
2022/05/20 14:13:07;;;;;;;4.63;4.23;;;41.40;31.70;;;;;;4988544;28;20467;-87
2022/05/20 14:15:41;;;;;;;4.90;4.37;;;41.70;32.40;;;;;;4993760;28;21001;-87
2022/05/20 14:18:16;;;;;;;7.33;4.50;;;40.20;31.50;;;;;;4993779;28;20462;-87
2022/05/20 14:20:47;;;;;;;5.60;4.50;;;39.40;33.20;;;;;;4993639;28;20450;-87
2022/05/20 14:23:17;;;;;;;3.90;3.60;;;39.30;34.50;;;;;;4994874;28;20483;-86
2022/05/20 14:26:04;;;;;;;6.97;4.70;;;38.90;33.80;;;;;;4986071;28;20454;-86
2022/05/20 14:28:46;;;;;;;8.10;4.67;;;38.00;34.10;;;;;;4982158;28;20451;-86
2022/05/20 14:31:26;;;;;;;4.33;3.93;;;36.20;35.80;;;;;;4982135;28;20495;-86
2022/05/20 14:33:57;;;;;;;4.53;4.13;;;35.20;37.70;;;;;;4992160;28;20462;-86
2022/05/20 14:36:25;;;;;;;5.27;4.37;;;34.40;38.20;;;;;;4998612;28;20455;-85